Time;durP1;ratioP1;P1;durP2;ratioP2;P2;SDS_P1;SDS_P2;PMS_P1;PMS_P2;Temp;Humidity;BMP_temperature;BMP_pressure;BME280_temperature;BME280_humidity;BME280_pressure;Samples;Min_cycle;Max_cycle;Signal;HPM_P1;HPM_P2
2021/12/08 00:02:09;;;;;;;;;1.50;0.00;;;;;8.79;65.19;99136.47;5060356;28;46926;-49
2021/12/08 00:04:35;;;;;;;;;0.75;0.00;;;;;8.80;65.08;99150.44;5060237;28;45233;-53
2021/12/08 00:07:02;;;;;;;;;1.00;0.50;;;;;8.76;64.76;99141.84;5059355;28;45343;-48
2021/12/08 00:09:35;;;;;;;;;3.00;0.00;;;;;8.75;64.92;99138.38;5060137;28;45426;-52
2021/12/08 00:14:44;;;;;;;;;1.00;1.00;;;;;8.71;65.08;99134.13;5059994;28;45463;-48
2021/12/08 00:17:10;;;;;;;;;2.50;1.75;;;;;8.72;64.83;99142.84;5059538;28;45279;-51
2021/12/08 00:19:35;;;;;;;;;3.00;1.50;;;;;8.70;64.93;99155.97;5060109;28;45563;-53
2021/12/08 00:22:01;;;;;;;;;3.00;2.00;;;;;8.69;64.71;99151.66;5060103;28;46037;-52
2021/12/08 00:24:26;;;;;;;;;4.75;1.50;;;;;8.68;64.97;99149.06;5059822;28;45366;-51
2021/12/08 00:26:54;;;;;;;;;2.50;1.50;;;;;8.67;65.18;99140.38;5060549;28;45291;-52
2021/12/08 00:29:19;;;;;;;;;1.75;1.75;;;;;8.66;64.62;99132.56;5059924;28;45303;-50
2021/12/08 00:31:46;;;;;;;;;1.00;1.00;;;;;8.64;64.78;99132.63;5059951;28;46019;-52
2021/12/08 00:34:12;;;;;;;;;2.50;2.50;;;;;8.63;64.97;99144.00;5060101;28;45250;-51
2021/12/08 00:36:48;;;;;;;;;2.75;1.50;;;;;8.60;64.58;99128.38;5060176;28;45222;-52
2021/12/08 00:39:13;;;;;;;;;2.00;2.00;;;;;8.56;64.84;99129.38;5060032;28;45326;-53
2021/12/08 00:41:39;;;;;;;;;1.25;1.00;;;;;8.51;64.69;99142.59;5058413;28;46173;-52
2021/12/08 00:44:06;;;;;;;;;3.25;0.00;;;;;8.48;64.84;99153.19;5058439;28;45372;-51
2021/12/08 00:46:32;;;;;;;;;2.75;0.50;;;;;8.46;64.70;99131.41;5054514;28;45352;-53
2021/12/08 00:48:58;;;;;;;;;0.25;0.25;;;;;8.42;64.69;99143.72;5059840;28;45313;-49
2021/12/08 00:51:23;;;;;;;;;1.75;1.25;;;;;8.31;64.60;99140.56;5058424;28;46292;-48
2021/12/08 00:53:49;;;;;;;;;1.25;0.00;;;;;8.35;64.41;99152.69;5059803;28;45316;-50
2021/12/08 00:56:15;;;;;;;;;0.50;0.50;;;;;8.34;64.59;99164.03;5060875;28;45235;-51
2021/12/08 00:58:40;;;;;;;;;1.00;0.50;;;;;8.33;64.56;99159.72;5063227;28;45648;-50
2021/12/08 01:01:07;;;;;;;;;0.00;0.00;;;;;8.29;64.40;99161.56;5063214;28;45225;-51
2021/12/08 01:03:37;;;;;;;;;2.75;1.00;;;;;8.26;64.47;99177.38;5063089;28;45270;-51
2021/12/08 01:06:03;;;;;;;;;0.00;0.00;;;;;8.22;64.51;99173.09;5061962;28;45359;-50
2021/12/08 01:08:30;;;;;;;;;0.25;0.25;;;;;8.20;64.61;99189.75;5068699;28;45304;-51
2021/12/08 01:10:59;;;;;;;;;2.00;0.00;;;;;8.17;64.61;99175.00;5062824;28;45584;-53
2021/12/08 01:13:26;;;;;;;;;4.00;0.00;;;;;8.16;64.40;99173.28;5063274;28;45582;-51
2021/12/08 01:15:55;;;;;;;;;1.50;0.50;;;;;8.12;64.41;99172.50;5063077;28;45268;-51
2021/12/08 01:18:21;;;;;;;;;2.75;0.50;;;;;8.04;64.38;99184.13;5054161;28;45506;-53
2021/12/08 01:20:47;;;;;;;;;0.75;0.75;;;;;8.04;64.31;99179.75;5062719;28;46074;-52
2021/12/08 01:23:13;;;;;;;;;1.00;0.00;;;;;8.03;64.12;99170.16;5062938;28;45256;-52
2021/12/08 01:25:39;;;;;;;;;4.00;1.75;;;;;8.02;64.42;99171.06;5062911;28;45509;-50
2021/12/08 01:28:04;;;;;;;;;1.50;0.00;;;;;7.99;64.13;99163.31;5061637;28;45490;-50
2021/12/08 01:30:31;;;;;;;;;4.00;0.00;;;;;7.99;64.04;99168.56;5062636;28;45286;-54
2021/12/08 01:32:56;;;;;;;;;0.00;0.00;;;;;7.96;64.04;99174.72;5062951;28;45313;-50
2021/12/08 01:35:23;;;;;;;;;1.00;1.00;;;;;7.96;64.09;99159.03;5076492;28;45305;-53
2021/12/08 01:37:48;;;;;;;;;0.00;0.00;;;;;7.97;63.82;99160.75;5063038;28;45516;-51
2021/12/08 01:40:14;;;;;;;;;1.75;0.00;;;;;7.93;64.03;99171.34;5061042;28;46186;-49
2021/12/08 01:42:45;;;;;;;;;0.25;0.00;;;;;7.92;64.16;99165.25;5062575;28;45476;-48
2021/12/08 01:48:07;;;;;;;;;1.00;0.00;;;;;7.89;63.99;99180.19;5062669;28;45219;-51
2021/12/08 01:50:34;;;;;;;;;0.25;0.25;;;;;7.86;64.19;99181.13;5060931;28;46773;-50
2021/12/08 01:52:59;;;;;;;;;0.00;0.00;;;;;7.86;64.19;99180.25;5062710;28;45375;-50
2021/12/08 01:55:24;;;;;;;;;2.00;1.00;;;;;7.81;64.24;99173.41;5062514;28;45307;-50
2021/12/08 01:57:50;;;;;;;;;1.50;0.25;;;;;7.81;63.99;99168.16;5062546;28;45524;-51
2021/12/08 02:00:21;;;;;;;;;2.25;1.00;;;;;7.76;64.04;99196.22;5062372;28;45184;-51
2021/12/08 02:02:47;;;;;;;;;2.50;2.00;;;;;7.75;63.95;99189.25;5062235;28;45316;-51
2021/12/08 02:05:13;;;;;;;;;0.75;0.00;;;;;7.72;64.08;99198.94;5062610;28;45285;-52
2021/12/08 02:07:38;;;;;;;;;1.00;1.00;;;;;7.68;63.94;99197.31;5062329;28;45489;-49
2021/12/08 02:10:05;;;;;;;;;2.00;1.00;;;;;7.64;64.17;99199.16;5062069;28;45803;-51
2021/12/08 02:12:34;;;;;;;;;0.00;0.00;;;;;7.64;64.21;99217.44;5061953;28;45145;-53
2021/12/08 02:15:00;;;;;;;;;2.00;1.00;;;;;7.62;64.04;99220.13;5062448;28;45390;-52
2021/12/08 02:17:26;;;;;;;;;2.00;1.00;;;;;7.61;64.28;99214.91;5054080;28;45809;-50
2021/12/08 02:19:52;;;;;;;;;0.50;0.50;;;;;7.59;64.19;99237.63;5062157;28;46379;-53
2021/12/08 02:22:18;;;;;;;;;1.00;1.00;;;;;7.58;64.49;99231.53;5061907;28;45553;-53
2021/12/08 02:24:43;;;;;;;;;1.00;1.00;;;;;7.56;64.21;99249.03;5060690;28;45623;-49
2021/12/08 02:27:08;;;;;;;;;3.00;1.25;;;;;7.56;64.12;99242.94;5060686;28;45420;-51
2021/12/08 02:29:41;;;;;;;;;0.00;0.00;;;;;7.57;64.18;99250.75;5060546;28;48298;-49
2021/12/08 02:32:27;;;;;;;;;1.25;0.00;;;;;7.51;64.29;99250.03;5061904;28;45310;-51
2021/12/08 02:48:35;;;;;;;;;1.00;1.00;;;;;7.45;64.06;99264.13;5061540;28;45407;-52
2021/12/08 02:51:01;;;;;;;;;2.00;0.50;;;;;7.41;64.22;99254.63;5061586;28;45623;-52
2021/12/08 02:53:26;;;;;;;;;1.75;0.75;;;;;7.37;64.30;99253.88;5075084;28;45385;-52
2021/12/08 02:55:52;;;;;;;;;2.00;1.00;;;;;7.27;64.07;99228.84;5060254;28;45305;-48
2021/12/08 02:58:18;;;;;;;;;0.00;0.00;;;;;7.36;64.26;99238.19;5061292;28;45241;-48
2021/12/08 03:00:51;;;;;;;;;2.50;0.75;;;;;7.35;63.96;99244.34;5061498;28;46970;-51
2021/12/08 03:03:16;;;;;;;;;1.00;0.00;;;;;7.33;63.96;99239.13;5060962;28;45773;-51
2021/12/08 03:05:42;;;;;;;;;0.00;0.00;;;;;7.36;64.07;99249.53;5061566;28;45466;-53
2021/12/08 03:08:08;;;;;;;;;2.50;0.00;;;;;7.31;64.21;99247.03;5061254;28;45453;-52
2021/12/08 03:10:39;;;;;;;;;1.25;1.00;;;;;7.32;64.04;99247.91;5060873;28;45335;-49
2021/12/08 03:13:05;;;;;;;;;0.50;0.50;;;;;7.30;64.13;99249.69;5061127;28;45433;-49
2021/12/08 03:15:31;;;;;;;;;1.50;1.00;;;;;7.30;64.08;99247.91;5060219;28;45364;-52
2021/12/08 03:17:57;;;;;;;;;0.00;0.00;;;;;7.30;64.08;99241.84;5065264;28;45359;-51
2021/12/08 03:20:37;;;;;;;;;0.25;0.00;;;;;7.28;64.30;99239.28;5060389;28;46115;-49
2021/12/08 03:23:03;;;;;;;;;0.00;0.00;;;;;7.29;64.06;99233.13;5061119;28;45244;-52
2021/12/08 03:25:35;;;;;;;;;3.50;1.50;;;;;7.27;64.18;99226.22;5060888;28;45528;-50
2021/12/08 03:28:09;;;;;;;;;1.00;1.00;;;;;7.29;64.22;99216.59;5060798;28;45255;-50
2021/12/08 03:30:40;;;;;;;;;1.00;1.00;;;;;7.26;64.19;99211.47;5060686;28;45399;-50
2021/12/08 03:33:06;;;;;;;;;0.75;0.00;;;;;7.25;64.17;99218.44;5060885;28;45391;-51
2021/12/08 03:35:32;;;;;;;;;2.75;1.50;;;;;7.25;64.18;99213.19;5063653;28;45344;-51
2021/12/08 03:37:58;;;;;;;;;1.00;1.00;;;;;7.26;64.34;99208.84;5060946;28;45272;-52
2021/12/08 03:40:26;;;;;;;;;2.00;1.50;;;;;7.26;64.05;99206.25;5060616;28;47154;-51
2021/12/08 03:42:55;;;;;;;;;1.25;0.00;;;;;7.23;64.03;99207.19;5059310;28;45194;-52
2021/12/08 03:45:22;;;;;;;;;2.75;1.00;;;;;7.24;63.83;99214.09;5054122;28;45322;-50
2021/12/08 03:47:58;;;;;;;;;3.00;1.00;;;;;7.25;64.21;99215.81;5060609;28;45527;-50
2021/12/08 03:50:24;;;;;;;;;1.00;1.00;;;;;7.23;64.18;99201.06;5060419;28;46995;-49
2021/12/08 03:52:49;;;;;;;;;1.00;1.00;;;;;7.22;64.26;99212.41;5060639;28;45286;-50
2021/12/08 03:55:16;;;;;;;;;1.00;1.00;;;;;7.21;64.09;99208.94;5060590;28;45317;-53
2021/12/08 03:57:42;;;;;;;;;2.75;1.75;;;;;7.21;64.09;99210.69;5060520;28;45529;-49
2021/12/08 04:00:14;;;;;;;;;2.00;0.00;;;;;7.22;64.09;99204.56;5059090;28;45282;-51
2021/12/08 04:02:40;;;;;;;;;2.25;1.00;;;;;7.21;64.08;99208.94;5059116;28;45319;-51
2021/12/08 04:05:07;;;;;;;;;2.00;1.00;;;;;7.20;64.04;99214.22;5060487;28;45215;-49
2021/12/08 04:07:33;;;;;;;;;1.00;1.00;;;;;7.20;63.98;99206.38;5060414;28;45326;-53
2021/12/08 04:09:58;;;;;;;;;2.00;2.00;;;;;7.14;64.15;99202.16;5059976;28;45273;-54
2021/12/08 04:12:24;;;;;;;;;3.25;1.00;;;;;7.16;64.23;99210.81;5060132;28;45429;-50
2021/12/08 04:14:57;;;;;;;;;1.00;1.00;;;;;7.15;64.29;99209.94;5060383;28;45224;-52
2021/12/08 04:17:33;;;;;;;;;1.25;1.00;;;;;7.14;64.28;99213.47;5051462;28;45435;-53
2021/12/08 04:20:04;;;;;;;;;3.75;2.00;;;;;7.11;64.28;99205.69;5060182;28;45340;-49
2021/12/08 04:22:37;;;;;;;;;3.25;2.00;;;;;7.13;64.17;99206.53;5058826;28;45412;-51
2021/12/08 04:25:07;;;;;;;;;1.75;1.00;;;;;7.10;64.40;99206.59;5060191;28;45296;-51
2021/12/08 04:27:35;;;;;;;;;1.75;1.00;;;;;7.12;64.44;99206.59;5059853;28;45373;-52
2021/12/08 04:30:05;;;;;;;;;2.00;0.50;;;;;7.10;63.89;99213.59;5059879;28;45432;-53
2021/12/08 04:32:32;;;;;;;;;1.00;1.00;;;;;7.11;64.30;99213.53;5057794;28;45286;-51
2021/12/08 04:35:01;;;;;;;;;1.00;0.00;;;;;7.12;63.98;99222.25;5072334;28;45488;-51
2021/12/08 04:37:35;;;;;;;;;3.75;1.00;;;;;7.11;64.20;99213.53;5060660;28;45433;-53
2021/12/08 04:40:35;;;;;;;;;2.50;0.75;;;;;7.10;64.08;99227.50;5058610;28;45275;-50
2021/12/08 04:43:21;;;;;;;;;2.50;1.00;;;;;7.11;63.83;99218.75;5059707;28;45247;-52
2021/12/08 05:07:36;;;;;;;;;1.25;0.50;;;;;7.10;63.98;99258.84;5059854;28;45233;-49
2021/12/08 05:10:14;;;;;;;;;3.25;1.00;;;;;7.06;64.06;99264.19;5053959;28;45450;-51
2021/12/08 05:12:39;;;;;;;;;3.75;1.75;;;;;7.05;64.00;99254.63;5059223;28;46051;-50
2021/12/08 05:15:23;;;;;;;;;2.25;1.00;;;;;7.05;64.23;99275.53;5058310;28;45439;-49
2021/12/08 05:18:32;;;;;;;;;2.50;2.00;;;;;7.05;64.22;99267.69;5058776;28;45407;-50
2021/12/08 05:21:04;;;;;;;;;1.00;1.00;;;;;7.01;64.08;99256.47;5029910;28;45331;-48
2021/12/08 05:23:38;;;;;;;;;1.00;1.00;;;;;6.99;64.31;99258.22;5059347;28;46919;-51
2021/12/08 05:26:10;;;;;;;;;3.50;2.00;;;;;6.99;64.04;99264.34;5059288;28;45255;-49
2021/12/08 05:28:37;;;;;;;;;1.00;1.00;;;;;6.99;64.20;99266.06;5059206;28;45423;-51
2021/12/08 05:31:14;;;;;;;;;2.25;1.50;;;;;6.92;64.29;99265.38;5066493;28;45485;-47
2021/12/08 05:33:42;;;;;;;;;2.25;1.25;;;;;6.91;64.29;99278.47;5063699;27;45441;-52
2021/12/08 05:36:09;;;;;;;;;3.00;2.00;;;;;6.87;64.16;99272.44;5059304;28;45319;-51
2021/12/08 05:38:36;;;;;;;;;2.00;1.25;;;;;6.85;64.24;99274.22;5059308;28;45458;-48
2021/12/08 05:41:17;;;;;;;;;3.00;1.75;;;;;6.83;64.37;99276.03;5059091;28;45520;-50
2021/12/08 05:43:44;;;;;;;;;3.00;2.00;;;;;6.79;64.42;99270.00;5061555;28;46379;-50
2021/12/08 05:46:10;;;;;;;;;1.00;1.00;;;;;6.80;64.36;99271.69;5057430;28;45341;-48
2021/12/08 05:48:36;;;;;;;;;2.25;2.00;;;;;6.77;64.33;99266.56;5061243;28;45332;-50
2021/12/08 05:51:07;;;;;;;;;3.75;0.50;;;;;6.75;64.09;99273.56;5062536;28;45587;-52
2021/12/08 05:53:35;;;;;;;;;2.50;1.50;;;;;6.77;64.11;99278.78;5062321;28;46224;-50
2021/12/08 05:56:00;;;;;;;;;2.75;2.25;;;;;6.75;64.19;99284.00;5062381;28;45267;-50
2021/12/08 05:58:27;;;;;;;;;3.00;1.00;;;;;6.74;64.11;99279.69;5062222;28;45177;-52
2021/12/08 06:00:57;;;;;;;;;6.00;1.25;;;;;6.73;64.17;99266.66;5074092;28;45215;-52
2021/12/08 06:03:24;;;;;;;;;1.00;1.00;;;;;6.72;64.39;99280.63;5063068;27;45290;-48
2021/12/08 06:05:52;;;;;;;;;4.75;4.00;;;;;6.73;64.36;99280.59;5061073;28;45353;-51
2021/12/08 06:08:18;;;;;;;;;1.50;0.75;;;;;6.69;64.28;99268.47;5062276;28;45223;-51
2021/12/08 06:10:44;;;;;;;;;1.25;1.00;;;;;6.67;64.31;99276.34;5077729;28;45495;-51
2021/12/08 06:13:14;;;;;;;;;3.00;0.25;;;;;6.67;64.30;99275.50;5061853;28;45517;-50
2021/12/08 06:15:42;;;;;;;;;2.25;1.75;;;;;6.68;64.15;99272.00;5062119;28;45282;-48
2021/12/08 06:18:08;;;;;;;;;3.25;1.00;;;;;6.67;64.15;99262.44;5060812;28;45452;-50
2021/12/08 06:20:34;;;;;;;;;3.00;2.00;;;;;6.66;64.17;99258.94;5060622;28;45791;-49
2021/12/08 06:23:00;;;;;;;;;1.75;1.75;;;;;6.63;64.18;99252.97;5057515;28;47239;-50
2021/12/08 06:25:27;;;;;;;;;2.75;1.00;;;;;6.64;64.37;99252.03;5056350;28;46817;-48
2021/12/08 06:27:54;;;;;;;;;3.25;2.00;;;;;6.64;64.21;99265.09;5062147;28;45326;-48
2021/12/08 06:30:24;;;;;;;;;1.50;1.00;;;;;6.63;64.31;99256.44;5062063;28;45505;-49
2021/12/08 06:32:50;;;;;;;;;7.25;3.00;;;;;6.62;64.33;99259.06;5073120;27;45421;-50
2021/12/08 06:35:24;;;;;;;;;3.00;3.00;;;;;6.60;64.22;99271.28;5061652;28;45429;-51
2021/12/08 06:37:51;;;;;;;;;3.50;1.00;;;;;6.49;64.45;99261.06;5062156;28;45485;-51
2021/12/08 06:40:26;;;;;;;;;2.00;1.00;;;;;6.56;64.40;99287.91;5061425;28;45308;-51
2021/12/08 06:42:55;;;;;;;;;2.00;2.00;;;;;6.55;64.41;99294.88;5061564;28;46746;-53
2021/12/08 06:45:27;;;;;;;;;3.00;3.00;;;;;6.55;64.28;99309.69;5056887;28;45417;-49
2021/12/08 06:47:56;;;;;;;;;6.00;2.25;;;;;6.51;64.55;99301.06;5061822;28;45289;-49
2021/12/08 06:50:33;;;;;;;;;2.75;2.75;;;;;6.51;64.50;99308.88;5061242;28;45252;-53
2021/12/08 06:52:59;;;;;;;;;8.75;4.25;;;;;6.49;64.55;99298.47;5060339;28;45355;-52
2021/12/08 06:55:32;;;;;;;;;4.00;3.75;;;;;6.47;64.42;99300.25;5060464;28;45350;-51
2021/12/08 06:58:05;;;;;;;;;6.00;4.25;;;;;6.47;64.42;99308.06;5061456;28;45234;-48
2021/12/08 07:04:28;;;;;;;;;4.50;3.75;;;;;6.44;64.54;99300.31;5061078;28;45267;-53
2021/12/08 07:06:42;;;;;;;;;4.00;4.00;;;;;6.42;64.44;99294.25;5058096;28;45173;-50
2021/12/08 07:09:37;;;;;;;;;4.25;3.00;;;;;6.29;64.51;99277.13;5061265;28;45402;-52
2021/12/08 07:12:12;;;;;;;;;3.00;2.50;;;;;6.41;64.44;99294.31;5056566;28;45289;-52
2021/12/08 07:14:39;;;;;;;;;9.25;5.00;;;;;6.41;64.24;99299.53;5059823;28;46292;-51
2021/12/08 07:17:10;;;;;;;;;2.75;2.75;;;;;6.40;64.54;99292.59;5060157;28;45225;-49
2021/12/08 07:22:29;;;;;;;;;6.50;4.50;;;;;6.38;64.55;99282.19;5037085;28;45454;-52
2021/12/08 07:24:58;;;;;;;;;9.00;7.00;;;;;6.37;64.58;99277.84;5060571;28;45302;-51
2021/12/08 07:27:28;;;;;;;;;11.75;6.50;;;;;6.39;64.42;99288.25;5060809;28;45300;-52
2021/12/08 07:29:57;;;;;;;;;7.75;3.50;;;;;6.31;64.58;99294.50;5072845;28;45318;-53
2021/12/08 07:32:28;;;;;;;;;4.00;2.25;;;;;6.29;64.52;99284.97;5060972;28;45324;-53
2021/12/08 07:34:57;;;;;;;;;6.00;3.00;;;;;6.29;64.59;99304.09;5060893;28;45321;-52
2021/12/08 07:37:27;;;;;;;;;1.00;1.00;;;;;6.30;64.53;99299.72;5060555;28;45294;-53
2021/12/08 07:39:59;;;;;;;;;4.75;3.75;;;;;6.27;64.56;99312.84;5059493;28;45354;-49
2021/12/08 07:42:34;;;;;;;;;5.50;3.00;;;;;6.28;64.49;99314.56;5060185;28;45253;-53
2021/12/08 07:45:04;;;;;;;;;3.75;2.75;;;;;6.29;64.53;99311.03;5060382;28;45292;-51
2021/12/08 07:47:30;;;;;;;;;7.00;3.50;;;;;6.28;64.60;99322.41;5059508;28;45523;-51
2021/12/08 07:50:21;;;;;;;;;6.00;2.75;;;;;6.28;64.64;99314.56;5059352;28;45284;-53
2021/12/08 07:52:49;;;;;;;;;2.50;1.75;;;;;6.31;64.39;99330.16;5049546;28;45666;-52
2021/12/08 07:55:22;;;;;;;;;3.00;3.00;;;;;6.32;64.43;99316.22;5060258;28;46266;-52
2021/12/08 07:57:48;;;;;;;;;3.25;3.25;;;;;6.31;64.75;99311.88;5060384;28;45348;-50
2021/12/08 08:00:20;;;;;;;;;4.50;2.75;;;;;6.30;64.45;99323.22;5059141;28;45509;-50
2021/12/08 08:02:46;;;;;;;;;2.50;2.50;;;;;6.32;64.46;99334.50;5060470;28;45552;-50
2021/12/08 08:05:16;;;;;;;;;1.75;1.75;;;;;6.33;64.56;99339.66;5060274;28;46358;-52
2021/12/08 08:07:43;;;;;;;;;6.75;2.75;;;;;6.36;64.40;99345.72;5060443;28;45466;-52
2021/12/08 08:10:14;;;;;;;;;4.00;3.50;;;;;6.36;64.38;99335.28;5060294;28;45298;-53
2021/12/08 08:12:44;;;;;;;;;7.50;2.25;;;;;6.37;64.63;99342.25;5058769;28;45413;-52
2021/12/08 08:15:15;;;;;;;;;4.50;2.00;;;;;6.39;64.67;99332.59;5059094;28;45274;-51
2021/12/08 08:17:44;;;;;;;;;5.00;4.00;;;;;6.38;64.33;99331.75;5060247;28;45421;-51
2021/12/08 08:20:22;;;;;;;;;10.50;7.00;;;;;6.40;64.53;99335.22;5060471;28;45366;-51
2021/12/08 08:22:48;;;;;;;;;7.50;3.00;;;;;6.45;64.55;99341.19;5058926;28;45341;-50
2021/12/08 08:25:17;;;;;;;;;11.50;5.00;;;;;6.47;64.57;99331.56;5060030;28;46189;-53
2021/12/08 08:27:43;;;;;;;;;8.00;5.00;;;;;6.46;64.51;99322.00;5059917;28;45367;-53
2021/12/08 08:30:13;;;;;;;;;6.50;5.75;;;;;6.49;64.70;99331.53;5060305;28;45292;-53
2021/12/08 08:32:40;;;;;;;;;10.00;5.75;;;;;6.51;64.73;99327.16;5060049;28;45440;-48
2021/12/08 08:35:29;;;;;;;;;3.50;2.00;;;;;6.54;64.71;99341.88;5059951;28;45392;-53
2021/12/08 08:37:54;;;;;;;;;3.00;3.00;;;;;6.45;64.74;99328.16;5058870;28;45323;-52
2021/12/08 08:40:26;;;;;;;;;3.00;3.00;;;;;6.54;64.85;99337.56;5059799;28;45280;-50
2021/12/08 08:42:54;;;;;;;;;5.25;3.75;;;;;6.58;64.62;99340.94;5060070;28;45224;-52
2021/12/08 08:45:29;;;;;;;;;4.00;2.50;;;;;6.59;64.61;99348.75;5058309;28;47220;-52
2021/12/08 08:48:04;;;;;;;;;5.50;5.00;;;;;6.62;64.89;99355.66;5060017;28;45232;-51
2021/12/08 08:50:40;;;;;;;;;5.25;4.00;;;;;6.63;64.70;99352.16;5060013;28;45257;-49
2021/12/08 08:53:06;;;;;;;;;7.50;2.25;;;;;6.69;64.79;99359.84;5059691;28;45293;-53
2021/12/08 08:55:36;;;;;;;;;4.00;2.25;;;;;6.73;64.85;99358.91;5059530;28;46168;-49
2021/12/08 08:58:05;;;;;;;;;5.00;3.25;;;;;6.78;64.93;99351.84;5075006;28;45481;-52
2021/12/08 09:00:39;;;;;;;;;4.25;2.00;;;;;6.80;64.77;99342.22;5059794;28;45177;-53
2021/12/08 09:03:09;;;;;;;;;3.25;3.00;;;;;6.87;64.89;99347.31;5042486;28;45545;-51
2021/12/08 09:05:40;;;;;;;;;7.25;4.75;;;;;6.91;64.90;99365.50;5059391;28;46403;-52
2021/12/08 09:08:08;;;;;;;;;8.75;5.25;;;;;6.97;64.76;99370.59;5059548;28;45431;-52
2021/12/08 09:10:42;;;;;;;;;4.50;2.00;;;;;7.03;64.84;99369.63;5059267;28;45323;-52
2021/12/08 09:13:25;;;;;;;;;3.75;3.00;;;;;7.07;64.84;99371.25;5059396;28;45393;-49
2021/12/08 09:15:58;;;;;;;;;2.25;2.25;;;;;7.11;65.14;99378.13;5059299;28;45430;-53
2021/12/08 09:18:34;;;;;;;;;3.25;2.00;;;;;7.19;64.82;99367.50;5062165;28;45291;-52
2021/12/08 09:21:16;;;;;;;;;2.00;2.00;;;;;7.24;65.17;99370.03;5063133;28;45328;-53
2021/12/08 09:24:02;;;;;;;;;3.00;1.75;;;;;7.31;64.74;99369.00;5062783;28;45391;-52
2021/12/08 09:26:32;;;;;;;;;2.00;2.00;;;;;7.38;64.88;99377.56;5063078;28;47026;-53
2021/12/08 09:29:15;;;;;;;;;3.00;2.00;;;;;7.41;65.09;99386.19;5062595;28;45270;-52
2021/12/08 09:31:48;;;;;;;;;5.75;2.25;;;;;7.48;64.94;99390.38;5063040;28;45244;-53
2021/12/08 09:34:21;;;;;;;;;4.50;3.00;;;;;7.52;64.89;99385.94;5062952;28;45192;-53
2021/12/08 09:36:56;;;;;;;;;1.00;1.00;;;;;7.58;64.92;99385.78;5062736;28;45558;-52
2021/12/08 09:39:24;;;;;;;;;3.50;1.50;;;;;7.62;64.98;99387.44;5061339;28;45252;-51
2021/12/08 09:42:07;;;;;;;;;4.00;3.00;;;;;7.68;64.83;99380.34;5062689;28;45233;-50
2021/12/08 09:44:55;;;;;;;;;5.00;2.00;;;;;7.73;65.03;99381.09;5062444;28;45242;-52
2021/12/08 09:47:20;;;;;;;;;4.25;2.50;;;;;7.75;64.93;99387.16;5062129;27;45247;-52
2021/12/08 09:49:49;;;;;;;;;3.25;1.00;;;;;7.79;64.75;99399.25;5062483;28;45470;-54
2021/12/08 09:52:17;;;;;;;;;1.25;1.00;;;;;7.81;64.93;99385.25;5062719;28;45459;-48
2021/12/08 09:54:42;;;;;;;;;5.00;2.00;;;;;7.83;64.92;99376.50;5062236;28;45434;-51
2021/12/08 09:57:13;;;;;;;;;1.75;1.00;;;;;7.86;64.80;99385.13;5062192;28;46735;-52
2021/12/08 09:59:45;;;;;;;;;2.00;1.75;;;;;7.84;64.85;99383.47;5062364;28;45500;-51
2021/12/08 10:02:13;;;;;;;;;2.50;1.25;;;;;7.89;64.68;99385.06;5062328;28;45308;-50
2021/12/08 10:04:39;;;;;;;;;1.00;1.00;;;;;7.89;64.83;99387.66;5062166;28;45431;-49
2021/12/08 10:07:07;;;;;;;;;3.00;1.25;;;;;7.95;64.91;99376.22;5060816;28;47490;-52
2021/12/08 10:09:32;;;;;;;;;3.00;3.00;;;;;7.97;64.80;99379.63;5062257;28;45234;-52
2021/12/08 10:11:58;;;;;;;;;1.25;1.25;;;;;8.03;64.65;99365.53;5062256;28;45534;-55
2021/12/08 10:14:25;;;;;;;;;2.25;1.00;;;;;8.10;64.79;99374.94;5062087;28;45389;-52
2021/12/08 10:16:53;;;;;;;;;4.25;2.25;;;;;8.16;64.75;99373.94;5061976;28;46103;-51
2021/12/08 10:19:18;;;;;;;;;2.00;2.00;;;;;8.20;64.78;99370.31;5062346;28;45294;-50
2021/12/08 10:21:45;;;;;;;;;4.25;2.00;;;;;8.26;64.86;99357.06;5062223;28;45449;-51
2021/12/08 10:24:24;;;;;;;;;2.75;2.75;;;;;8.33;64.85;99355.16;5060689;28;45335;-51
2021/12/08 10:26:52;;;;;;;;;1.75;0.50;;;;;8.39;64.90;99360.22;5060605;28;48365;-51
2021/12/08 10:29:26;;;;;;;;;1.00;1.00;;;;;8.48;64.57;99359.13;5060467;28;45500;-50
2021/12/08 10:31:53;;;;;;;;;2.00;0.25;;;;;8.55;64.67;99358.06;5062036;28;45303;-51
2021/12/08 10:34:24;;;;;;;;;5.25;1.50;;;;;8.64;64.76;99362.19;5060644;28;45320;-52
2021/12/08 10:37:04;;;;;;;;;2.00;2.00;;;;;8.71;64.63;99354.13;5061693;28;47205;-52
2021/12/08 10:39:39;;;;;;;;;3.00;2.00;;;;;8.82;64.62;99369.53;5061615;28;45402;-53
2021/12/08 10:42:11;;;;;;;;;4.00;3.00;;;;;8.93;64.68;99380.56;5061673;28;45382;-52
2021/12/08 10:44:46;;;;;;;;;3.75;2.00;;;;;9.02;64.78;99376.81;5060192;28;45375;-50
2021/12/08 10:47:16;;;;;;;;;2.25;1.00;;;;;9.16;64.57;99386.03;5061555;28;46359;-53
2021/12/08 10:55:01;;;;;;;;;3.25;2.75;;;;;9.50;64.77;99377.97;5047980;28;45320;-51
2021/12/08 10:57:30;;;;;;;;;2.75;2.00;;;;;9.62;64.57;99375.88;5061328;28;46485;-51
2021/12/08 11:00:07;;;;;;;;;5.00;3.00;;;;;9.72;64.59;99362.44;5061597;28;45336;-50
2021/12/08 11:03:01;;;;;;;;;3.00;2.00;;;;;9.86;64.71;99364.59;5059945;28;45301;-53
2021/12/08 11:05:31;;;;;;;;;3.00;3.00;;;;;9.96;64.46;99367.78;5061318;28;45263;-54
2021/12/08 11:08:10;;;;;;;;;5.50;2.00;;;;;10.01;64.49;99355.34;5061180;28;46502;-53
2021/12/08 11:10:43;;;;;;;;;0.25;0.00;;;;;10.12;64.20;99357.59;5059719;28;45273;-49
2021/12/08 11:13:11;;;;;;;;;4.25;2.75;;;;;10.22;64.25;99363.38;5060311;28;45254;-52
2021/12/08 11:15:38;;;;;;;;;2.50;2.00;;;;;10.27;63.94;99371.97;5061152;28;45383;-53
2021/12/08 11:18:08;;;;;;;;;2.00;1.00;;;;;10.33;63.95;99361.25;5061028;28;45438;-52
2021/12/08 11:20:39;;;;;;;;;4.00;2.00;;;;;10.39;63.88;99371.56;5060950;28;45237;-50
2021/12/08 11:23:09;;;;;;;;;1.50;1.50;;;;;10.39;63.69;99365.47;5060082;28;45352;-52
2021/12/08 11:25:40;;;;;;;;;8.75;5.00;;;;;10.49;63.68;99382.63;5059574;28;45249;-51
2021/12/08 11:28:19;;;;;;;;;2.50;2.50;;;;;10.55;63.67;99373.63;5061023;28;46184;-52
2021/12/08 11:30:45;;;;;;;;;2.75;1.25;;;;;10.61;63.65;99368.16;5061017;28;45234;-50
2021/12/08 11:33:18;;;;;;;;;2.25;2.25;;;;;10.67;63.54;99375.81;5059805;28;45256;-53
2021/12/08 11:35:44;;;;;;;;;1.00;1.00;;;;;10.72;63.48;99381.78;5061063;28;45224;-52
2021/12/08 11:38:10;;;;;;;;;1.25;1.25;;;;;10.79;63.50;99381.56;5059042;28;47014;-50
2021/12/08 11:40:36;;;;;;;;;3.25;2.00;;;;;10.78;63.41;99370.19;5058715;28;45232;-50
2021/12/08 11:43:02;;;;;;;;;1.75;1.75;;;;;10.86;63.17;99364.66;5059323;28;45437;-49
2021/12/08 11:45:38;;;;;;;;;5.50;2.00;;;;;10.88;63.27;99370.72;5042533;28;45386;-50
2021/12/08 11:48:20;;;;;;;;;1.25;0.50;;;;;10.94;63.03;99367.84;5060433;28;46417;-52
2021/12/08 11:50:45;;;;;;;;;1.75;1.00;;;;;10.98;63.04;99368.56;5060476;28;45181;-49
2021/12/08 11:53:11;;;;;;;;;1.75;1.25;;;;;10.99;62.99;99365.03;5059350;28;45411;-49
2021/12/08 11:55:36;;;;;;;;;4.00;3.00;;;;;11.02;62.88;99371.03;5059276;28;45443;-52
2021/12/08 11:58:02;;;;;;;;;0.75;0.75;;;;;11.04;62.83;99368.34;5060158;28;45364;-50
2021/12/08 12:00:37;;;;;;;;;1.25;1.00;;;;;11.07;62.73;99363.00;5059384;28;45269;-49
2021/12/08 12:03:08;;;;;;;;;1.00;1.00;;;;;11.11;62.62;99371.63;5059143;28;45522;-52
2021/12/08 12:05:39;;;;;;;;;3.25;2.00;;;;;11.13;62.65;99370.66;5060244;28;45220;-51
2021/12/08 12:08:11;;;;;;;;;2.50;2.50;;;;;11.15;62.70;99360.91;5058955;28;47854;-53
2021/12/08 12:10:39;;;;;;;;;5.00;2.25;;;;;11.21;62.35;99363.31;5058766;28;45914;-52
2021/12/08 12:13:08;;;;;;;;;1.00;1.00;;;;;11.24;62.76;99372.84;5060357;28;45319;-53
2021/12/08 12:15:35;;;;;;;;;1.50;1.50;;;;;11.29;62.49;99378.78;5060250;28;45305;-52
2021/12/08 12:18:01;;;;;;;;;4.00;2.25;;;;;11.31;62.28;99384.84;5060285;28;46510;-49
2021/12/08 12:20:36;;;;;;;;;1.00;1.00;;;;;11.35;62.49;99394.31;5058755;28;45324;-52
2021/12/08 12:23:08;;;;;;;;;2.50;1.00;;;;;11.34;62.19;99392.59;5060336;28;45318;-51
2021/12/08 12:25:58;;;;;;;;;2.00;2.00;;;;;11.38;62.16;99399.47;5075396;28;45316;-50
2021/12/08 12:28:38;;;;;;;;;3.50;2.25;;;;;11.42;62.12;99405.47;5059728;28;47030;-51
2021/12/08 12:31:52;;;;;;;;;1.50;1.00;;;;;11.45;62.26;99412.41;5060152;28;45413;-51
2021/12/08 12:34:27;;;;;;;;;0.75;0.75;;;;;11.50;62.21;99424.44;5057091;28;45410;-53
2021/12/08 12:36:54;;;;;;;;;3.00;1.75;;;;;11.51;62.18;99417.41;5059963;28;45284;-54
2021/12/08 12:39:23;;;;;;;;;4.75;3.00;;;;;11.57;62.19;99418.94;5059812;28;45269;-54
2021/12/08 12:42:18;;;;;;;;;1.25;1.00;;;;;11.65;62.20;99432.66;5059719;28;45412;-53
2021/12/08 12:45:02;;;;;;;;;3.25;2.50;;;;;11.66;62.00;99432.59;5058446;28;45568;-53
2021/12/08 12:47:30;;;;;;;;;3.50;1.00;;;;;11.66;61.76;99445.75;5060018;28;45322;-52
2021/12/08 12:50:25;;;;;;;;;2.00;2.00;;;;;11.67;61.93;99441.34;5059721;28;46230;-49